Time;durP1;ratioP1;P1;durP2;ratioP2;P2;SDS_P1;SDS_P2;PMS_P1;PMS_P2;Temp;Humidity;BMP_temperature;BMP_pressure;BME280_temperature;BME280_humidity;BME280_pressure;Samples;Min_cycle;Max_cycle;Signal;HPM_P1;HPM_P2
2021/12/03 00:01:28;;;;;;;7.22;3.10;;;;;;;;;;5049584;28;20036;-71
2021/12/03 00:04:13;;;;;;;5.25;2.88;;;;;;;;;;5048363;28;20491;-70
2021/12/03 00:06:59;;;;;;;5.68;3.03;;;;;;;;;;5062243;28;20040;-73
2021/12/03 00:09:44;;;;;;;7.75;3.30;;;;;;;;;;5059949;28;20053;-71
2021/12/03 00:12:29;;;;;;;5.15;3.42;;;;;;;;;;5057812;28;20049;-73
2021/12/03 00:15:15;;;;;;;5.30;2.95;;;;;;;;;;5044248;28;20037;-71
2021/12/03 00:18:01;;;;;;;8.63;3.80;;;;;;;;;;5041290;28;20025;-65
2021/12/03 00:20:46;;;;;;;5.88;3.30;;;;;;;;;;5031880;28;20532;-62
2021/12/03 00:23:32;;;;;;;5.22;3.20;;;;;;;;;;5047434;28;20044;-64
2021/12/03 00:26:17;;;;;;;7.53;3.20;;;;;;;;;;5040602;28;20059;-63
2021/12/03 00:29:03;;;;;;;6.43;3.35;;;;;;;;;;5043775;28;20033;-64
2021/12/03 00:31:48;;;;;;;6.05;3.72;;;;;;;;;;5047234;28;20379;-62
2021/12/03 00:34:33;;;;;;;7.72;3.55;;;;;;;;;;5035364;28;20037;-62
2021/12/03 00:37:19;;;;;;;5.63;3.30;;;;;;;;;;5034962;28;20108;-71
2021/12/03 00:40:08;;;;;;;6.13;3.38;;;;;;;;;;5055636;28;20047;-62
2021/12/03 00:42:54;;;;;;;;;;;;;;;;;;5045035;28;20037;-63
2021/12/03 00:45:41;;;;;;;8.50;4.32;;;;;;;;;;5049877;28;19951;-65
2021/12/03 00:48:27;;;;;;;6.07;2.90;;;;;;;;;;5038761;28;20054;-67
2021/12/03 00:51:16;;;;;;;7.70;3.55;;;;;;;;;;5035081;28;20051;-64
2021/12/03 00:54:01;;;;;;;7.15;4.05;;;;;;;;;;5037386;28;20040;-74
2021/12/03 00:56:47;;;;;;;8.85;3.53;;;;;;;;;;5034235;28;20149;-62
2021/12/03 00:59:32;;;;;;;7.05;3.90;;;;;;;;;;5034513;28;20121;-63
2021/12/03 01:02:17;;;;;;;7.65;4.00;;;;;;;;;;5034277;28;20499;-64
2021/12/03 01:05:03;;;;;;;7.75;3.95;;;;;;;;;;5027526;28;20049;-63
2021/12/03 01:07:48;;;;;;;10.45;4.07;;;;;;;;;;5038541;28;20442;-63
2021/12/03 01:10:33;;;;;;;6.93;4.50;;;;;;;;;;5038834;28;20049;-62
2021/12/03 01:13:19;;;;;;;8.38;4.13;;;;;;;;;;5044908;28;20032;-67
2021/12/03 01:16:05;;;;;;;9.15;3.85;;;;;;;;;;5046205;28;20033;-70
2021/12/03 01:18:50;;;;;;;8.10;4.13;;;;;;;;;;5030002;28;20035;-68
2021/12/03 01:21:35;;;;;;;6.93;4.10;;;;;;;;;;5028925;28;20064;-69
2021/12/03 01:24:21;;;;;;;6.65;3.90;;;;;;;;;;5046281;28;20037;-70
2021/12/03 01:27:06;;;;;;;8.60;4.25;;;;;;;;;;5030650;28;20021;-68
2021/12/03 01:29:51;;;;;;;7.82;4.10;;;;;;;;;;5041206;28;20474;-68
2021/12/03 01:32:37;;;;;;;6.65;4.07;;;;;;;;;;5049948;28;20245;-68
2021/12/03 01:35:23;;;;;;;7.15;3.88;;;;;;;;;;5047358;28;20068;-68
2021/12/03 01:38:08;;;;;;;5.82;3.33;;;;;;;;;;5028875;28;20124;-69
2021/12/03 01:40:53;;;;;;;9.10;4.10;;;;;;;;;;5045647;28;20411;-70
2021/12/03 01:43:39;;;;;;;6.60;4.05;;;;;;;;;;5015356;28;20476;-72
2021/12/03 01:46:25;;;;;;;8.30;4.82;;;;;;;;;;5042231;28;20024;-69
2021/12/03 01:49:11;;;;;;;10.38;5.07;;;;;;;;;;5040546;28;20036;-68
2021/12/03 01:51:56;;;;;;;8.25;4.65;;;;;;;;;;5042047;28;20020;-63
2021/12/03 01:54:42;;;;;;;10.38;4.30;;;;;;;;;;5033279;28;20099;-67
2021/12/03 01:57:27;;;;;;;10.02;4.50;;;;;;;;;;5041363;28;20025;-64
2021/12/03 02:00:15;;;;;;;11.68;5.32;;;;;;;;;;5041646;28;20384;-63
2021/12/03 02:03:00;;;;;;;7.45;4.30;;;;;;;;;;5034208;28;20446;-63
2021/12/03 02:05:45;;;;;;;8.05;4.70;;;;;;;;;;5045262;28;20527;-64
2021/12/03 02:08:31;;;;;;;8.02;4.55;;;;;;;;;;5047960;28;20028;-71
2021/12/03 02:11:17;;;;;;;10.20;4.63;;;;;;;;;;5029781;28;20467;-64
2021/12/03 02:14:03;;;;;;;9.88;4.97;;;;;;;;;;5032801;28;20148;-63
2021/12/03 02:16:48;;;;;;;8.65;4.38;;;;;;;;;;5040697;28;20025;-63
2021/12/03 02:19:34;;;;;;;8.43;4.47;;;;;;;;;;5036131;28;20052;-63
2021/12/03 02:22:19;;;;;;;7.80;4.45;;;;;;;;;;5054802;28;20021;-63
2021/12/03 02:25:06;;;;;;;7.45;5.07;;;;;;;;;;5045369;28;20032;-65
2021/12/03 02:27:53;;;;;;;8.38;4.18;;;;;;;;;;5035937;28;20025;-70
2021/12/03 02:30:39;;;;;;;9.15;5.22;;;;;;;;;;5028764;28;20476;-69
2021/12/03 02:33:25;;;;;;;8.13;5.00;;;;;;;;;;5041990;28;20040;-70
2021/12/03 02:36:10;;;;;;;10.07;5.32;;;;;;;;;;5029633;28;20037;-71
2021/12/03 02:38:55;;;;;;;6.50;3.97;;;;;;;;;;5042868;28;20025;-70
2021/12/03 02:41:41;;;;;;;8.60;4.90;;;;;;;;;;5042980;28;20467;-67
2021/12/03 02:44:26;;;;;;;8.23;5.05;;;;;;;;;;5052809;28;20507;-62
2021/12/03 02:47:11;;;;;;;8.63;5.00;;;;;;;;;;5034395;28;20519;-66
2021/12/03 02:49:57;;;;;;;13.75;6.88;;;;;;;;;;5044258;28;20029;-69
2021/12/03 02:52:42;;;;;;;8.50;4.68;;;;;;;;;;5034258;28;20459;-69
2021/12/03 02:55:28;;;;;;;9.02;5.80;;;;;;;;;;5041527;28;20056;-68
2021/12/03 02:58:13;;;;;;;9.50;5.68;;;;;;;;;;5047932;28;20021;-67
2021/12/03 03:00:59;;;;;;;8.13;4.68;;;;;;;;;;5031716;28;20029;-67
2021/12/03 03:03:44;;;;;;;9.27;5.07;;;;;;;;;;5037315;28;20480;-62
2021/12/03 03:06:30;;;;;;;7.15;4.55;;;;;;;;;;5034749;28;20036;-65
2021/12/03 03:09:15;;;;;;;8.93;5.50;;;;;;;;;;5045850;28;20165;-61
2021/12/03 03:12:00;;;;;;;9.30;5.80;;;;;;;;;;5045432;28;20076;-64
2021/12/03 03:14:47;;;;;;;10.23;6.00;;;;;;;;;;5057633;28;20088;-60
2021/12/03 03:17:32;;;;;;;11.02;6.28;;;;;;;;;;5044946;28;20028;-63
2021/12/03 03:20:17;;;;;;;10.27;6.15;;;;;;;;;;5046280;28;20064;-62
2021/12/03 03:23:03;;;;;;;8.90;5.68;;;;;;;;;;5042019;28;20029;-70
2021/12/03 03:25:49;;;;;;;10.38;5.45;;;;;;;;;;5044632;28;20035;-62
2021/12/03 03:28:34;;;;;;;7.82;4.68;;;;;;;;;;5028225;28;20049;-62
2021/12/03 03:31:19;;;;;;;9.98;5.75;;;;;;;;;;5045151;28;20028;-64
2021/12/03 03:34:06;;;;;;;9.07;5.40;;;;;;;;;;5050471;28;20029;-68
2021/12/03 03:36:51;;;;;;;8.55;5.43;;;;;;;;;;5039955;28;20017;-63
2021/12/03 03:39:36;;;;;;;10.60;5.82;;;;;;;;;;5043853;28;20120;-63
2021/12/03 03:42:21;;;;;;;7.72;4.88;;;;;;;;;;5037853;28;20087;-70
2021/12/03 03:45:09;;;;;;;12.60;5.00;;;;;;;;;;5041238;28;20029;-69
2021/12/03 03:47:54;;;;;;;9.68;5.35;;;;;;;;;;5046325;28;20032;-69
2021/12/03 03:50:40;;;;;;;7.43;5.10;;;;;;;;;;5054496;28;20041;-71
2021/12/03 03:53:25;;;;;;;10.88;5.97;;;;;;;;;;5043351;28;20053;-69
2021/12/03 03:56:13;;;;;;;10.20;5.97;;;;;;;;;;5047478;28;20033;-69
2021/12/03 03:58:59;;;;;;;12.30;5.93;;;;;;;;;;5039983;28;20219;-70
2021/12/03 04:01:48;;;;;;;9.00;5.82;;;;;;;;;;5057329;28;20127;-79
2021/12/03 04:04:34;;;;;;;13.65;7.00;;;;;;;;;;5046046;28;20044;-79
2021/12/03 04:07:19;;;;;;;9.60;6.20;;;;;;;;;;5035313;28;20543;-79
2021/12/03 04:10:05;;;;;;;7.43;5.13;;;;;;;;;;5020030;28;20125;-80
2021/12/03 04:12:50;;;;;;;10.57;5.65;;;;;;;;;;5049775;28;20537;-81
2021/12/03 04:15:37;;;;;;;13.18;6.93;;;;;;;;;;5038151;28;20641;-80
2021/12/03 04:18:22;;;;;;;8.00;5.35;;;;;;;;;;5048581;28;20387;-69
2021/12/03 04:21:07;;;;;;;9.13;5.75;;;;;;;;;;5030496;28;20116;-64
2021/12/03 04:23:53;;;;;;;13.30;6.25;;;;;;;;;;5053263;28;20037;-63
2021/12/03 04:26:38;;;;;;;9.13;5.57;;;;;;;;;;5047175;28;20088;-63
2021/12/03 04:29:23;;;;;;;10.95;5.47;;;;;;;;;;5045315;28;20037;-63
2021/12/03 04:32:09;;;;;;;9.43;5.93;;;;;;;;;;5037416;28;20040;-67
2021/12/03 04:34:54;;;;;;;9.88;6.10;;;;;;;;;;5044504;28;20056;-80
2021/12/03 04:37:40;;;;;;;10.15;6.28;;;;;;;;;;5031603;28;20037;-78
2021/12/03 04:40:25;;;;;;;9.07;5.95;;;;;;;;;;5048691;28;20029;-79
2021/12/03 04:43:11;;;;;;;10.38;6.68;;;;;;;;;;5046920;28;20082;-80
2021/12/03 04:45:56;;;;;;;9.50;6.68;;;;;;;;;;5040559;28;20452;-79
2021/12/03 04:48:42;;;;;;;11.68;7.43;;;;;;;;;;5057520;28;20057;-79
2021/12/03 04:51:27;;;;;;;11.35;6.85;;;;;;;;;;5048456;28;20287;-80
2021/12/03 04:54:12;;;;;;;12.82;7.78;;;;;;;;;;5047706;28;20494;-65
2021/12/03 04:56:58;;;;;;;13.13;7.15;;;;;;;;;;5040713;28;20032;-78
2021/12/03 04:59:43;;;;;;;10.90;6.20;;;;;;;;;;5039329;28;20112;-77
2021/12/03 05:02:28;;;;;;;7.28;5.40;;;;;;;;;;5033886;28;20480;-76
2021/12/03 05:05:13;;;;;;;12.38;6.88;;;;;;;;;;5040311;28;20453;-76
2021/12/03 05:08:01;;;;;;;11.18;6.88;;;;;;;;;;5052321;28;20028;-77
2021/12/03 05:10:46;;;;;;;9.82;6.82;;;;;;;;;;5043945;28;20049;-77
2021/12/03 05:13:33;;;;;;;11.98;7.13;;;;;;;;;;5037431;28;20040;-65
2021/12/03 05:16:18;;;;;;;9.57;6.05;;;;;;;;;;5048594;28;20028;-69
2021/12/03 05:19:03;;;;;;;9.77;5.93;;;;;;;;;;5043436;28;20037;-69
2021/12/03 05:21:49;;;;;;;10.50;6.88;;;;;;;;;;5041184;28;20472;-68
2021/12/03 05:24:34;;;;;;;12.50;7.70;;;;;;;;;;5046628;28;20610;-69
2021/12/03 05:27:19;;;;;;;11.07;6.55;;;;;;;;;;5048570;28;20037;-69
2021/12/03 05:30:05;;;;;;;9.63;5.85;;;;;;;;;;5028954;28;20072;-68
2021/12/03 05:32:51;;;;;;;10.52;6.05;;;;;;;;;;5034677;28;20028;-62
2021/12/03 05:35:36;;;;;;;11.10;6.85;;;;;;;;;;5041243;28;20063;-62
2021/12/03 05:38:21;;;;;;;14.30;8.70;;;;;;;;;;5045538;28;20449;-63
2021/12/03 05:41:07;;;;;;;14.68;7.13;;;;;;;;;;5042008;28;20037;-63
2021/12/03 05:43:52;;;;;;;11.13;6.82;;;;;;;;;;5037567;28;20415;-63
2021/12/03 05:46:37;;;;;;;13.32;7.97;;;;;;;;;;5042002;28;20357;-62
2021/12/03 05:49:23;;;;;;;11.25;7.60;;;;;;;;;;5045218;28;20515;-67
2021/12/03 05:52:08;;;;;;;10.48;6.70;;;;;;;;;;5060834;28;20033;-72
2021/12/03 05:54:53;;;;;;;9.98;6.75;;;;;;;;;;5037976;28;20344;-70
2021/12/03 05:57:39;;;;;;;14.00;7.70;;;;;;;;;;5048075;28;20073;-70
2021/12/03 06:00:27;;;;;;;15.02;8.02;;;;;;;;;;5044353;28;20032;-69
2021/12/03 06:03:13;;;;;;;12.02;7.78;;;;;;;;;;5025443;28;20039;-69
2021/12/03 06:05:58;;;;;;;10.75;7.90;;;;;;;;;;5045002;28;20395;-70
2021/12/03 06:08:43;;;;;;;10.57;6.78;;;;;;;;;;5050926;28;20033;-71
2021/12/03 06:11:28;;;;;;;12.00;8.10;;;;;;;;;;5043583;28;20037;-71
2021/12/03 06:14:13;;;;;;;12.70;8.70;;;;;;;;;;5040892;28;20029;-69
2021/12/03 06:16:59;;;;;;;13.50;8.68;;;;;;;;;;5045527;28;20033;-71
2021/12/03 06:19:44;;;;;;;11.15;7.88;;;;;;;;;;5044191;28;20504;-71
2021/12/03 06:22:29;;;;;;;11.93;7.78;;;;;;;;;;5024893;28;20051;-69
2021/12/03 06:25:15;;;;;;;13.30;8.18;;;;;;;;;;5041985;28;20040;-76
2021/12/03 06:28:01;;;;;;;39.63;26.20;;;;;;;;;;5038617;28;20025;-77
2021/12/03 06:30:46;;;;;;;35.33;22.70;;;;;;;;;;5037126;28;20115;-78
2021/12/03 06:33:31;;;;;;;16.65;10.82;;;;;;;;;;5035321;28;20059;-79
2021/12/03 06:36:17;;;;;;;12.82;8.00;;;;;;;;;;5040802;28;20025;-79
2021/12/03 06:39:02;;;;;;;15.38;8.75;;;;;;;;;;5035076;28;20065;-78
2021/12/03 06:41:48;;;;;;;14.48;8.40;;;;;;;;;;5030273;28;20025;-73
2021/12/03 06:44:33;;;;;;;13.85;8.63;;;;;;;;;;5034686;28;20168;-68
2021/12/03 06:47:18;;;;;;;10.60;6.68;;;;;;;;;;5040955;28;20090;-70
2021/12/03 06:50:05;;;;;;;11.63;7.53;;;;;;;;;;5014838;28;20037;-71
2021/12/03 06:52:59;;;;;;;11.05;7.28;;;;;;;;;;5036308;28;20083;-70
2021/12/03 06:58:29;;;;;;;15.23;8.75;;;;;;;;;;5034339;28;20775;-73
2021/12/03 07:01:15;;;;;;;12.88;7.80;;;;;;;;;;5039980;28;20047;-73
2021/12/03 07:04:00;;;;;;;11.82;8.30;;;;;;;;;;5055857;28;20037;-66
2021/12/03 07:06:46;;;;;;;15.25;8.50;;;;;;;;;;5046021;28;20021;-68
2021/12/03 07:09:31;;;;;;;10.63;6.55;;;;;;;;;;5039244;28;20136;-72
2021/12/03 07:12:16;;;;;;;16.88;9.15;;;;;;;;;;5055766;28;20087;-70
2021/12/03 07:15:02;;;;;;;12.60;8.20;;;;;;;;;;5048171;28;20024;-71
2021/12/03 07:17:50;;;;;;;11.18;7.82;;;;;;;;;;5042957;28;20065;-73
2021/12/03 07:20:35;;;;;;;12.70;7.22;;;;;;;;;;5035938;28;20063;-69
2021/12/03 07:23:21;;;;;;;50.30;32.00;;;;;;;;;;5040941;28;20030;-69
2021/12/03 07:26:06;;;;;;;14.88;9.68;;;;;;;;;;5039542;28;20022;-67
2021/12/03 07:28:52;;;;;;;12.40;7.03;;;;;;;;;;5045085;28;20447;-69
2021/12/03 07:31:38;;;;;;;11.65;7.65;;;;;;;;;;5045979;28;20098;-68
2021/12/03 07:34:23;;;;;;;15.52;8.77;;;;;;;;;;5045548;28;20029;-69
2021/12/03 07:37:09;;;;;;;13.32;7.60;;;;;;;;;;5045060;28;20056;-67
2021/12/03 07:39:54;;;;;;;13.10;7.28;;;;;;;;;;5038893;28;20491;-66
2021/12/03 07:42:40;;;;;;;9.63;6.10;;;;;;;;;;5039506;28;20514;-63
2021/12/03 07:45:25;;;;;;;12.20;8.02;;;;;;;;;;5047217;28;20033;-63
2021/12/03 07:48:10;;;;;;;10.60;6.93;;;;;;;;;;5033955;28;20056;-64
2021/12/03 07:50:57;;;;;;;14.00;7.32;;;;;;;;;;5046676;28;20033;-65
2021/12/03 07:53:42;;;;;;;10.18;6.30;;;;;;;;;;5047461;28;20075;-63
2021/12/03 07:56:27;;;;;;;74.20;45.35;;;;;;;;;;5037557;28;20029;-62
2021/12/03 07:59:13;;;;;;;22.50;14.38;;;;;;;;;;5042234;28;20033;-65
2021/12/03 08:01:58;;;;;;;16.17;9.02;;;;;;;;;;5036251;28;20032;-71
2021/12/03 08:04:47;;;;;;;12.43;7.65;;;;;;;;;;5044229;28;20033;-70
2021/12/03 08:07:32;;;;;;;12.30;7.38;;;;;;;;;;5046360;28;20043;-70
2021/12/03 08:10:18;;;;;;;11.07;7.10;;;;;;;;;;5061099;28;20045;-69
2021/12/03 08:13:03;;;;;;;12.40;6.95;;;;;;;;;;5046538;28;20075;-68
2021/12/03 08:15:48;;;;;;;13.10;6.80;;;;;;;;;;5042181;28;20024;-68
2021/12/03 08:18:34;;;;;;;12.80;6.70;;;;;;;;;;5050167;28;20611;-64
2021/12/03 08:21:19;;;;;;;10.38;7.10;;;;;;;;;;5030645;28;20033;-65
2021/12/03 08:24:05;;;;;;;12.07;6.55;;;;;;;;;;5041044;28;20481;-65
2021/12/03 08:26:50;;;;;;;15.10;8.88;;;;;;;;;;5039237;28;20124;-66
2021/12/03 08:29:35;;;;;;;18.00;10.95;;;;;;;;;;5034901;28;20095;-65
2021/12/03 08:32:20;;;;;;;15.82;8.43;;;;;;;;;;5034616;28;20035;-65
2021/12/03 08:35:06;;;;;;;10.95;7.05;;;;;;;;;;5041829;28;20495;-69
2021/12/03 08:37:52;;;;;;;11.57;7.32;;;;;;;;;;5060615;28;20029;-62
2021/12/03 08:40:37;;;;;;;12.50;7.43;;;;;;;;;;5026622;28;20126;-65
2021/12/03 08:43:22;;;;;;;12.75;8.18;;;;;;;;;;5044713;28;20507;-64
2021/12/03 08:46:32;;;;;;;14.27;7.80;;;;;;;;;;5039304;28;20036;-63
2021/12/03 08:49:25;;;;;;;12.65;7.70;;;;;;;;;;5038606;28;20032;-62
2021/12/03 08:54:59;;;;;;;14.57;8.48;;;;;;;;;;5042954;28;20159;-65
2021/12/03 08:57:44;;;;;;;14.45;8.82;;;;;;;;;;5043541;28;20137;-71
2021/12/03 09:00:30;;;;;;;14.25;9.05;;;;;;;;;;5034392;28;20025;-72
2021/12/03 09:03:15;;;;;;;12.35;8.07;;;;;;;;;;5022268;28;20087;-72
2021/12/03 09:06:01;;;;;;;14.07;8.77;;;;;;;;;;5043023;28;20293;-73
2021/12/03 09:08:46;;;;;;;17.05;8.93;;;;;;;;;;5046768;28;20045;-72
2021/12/03 09:11:31;;;;;;;12.15;7.75;;;;;;;;;;5045532;28;20520;-68
2021/12/03 09:14:24;;;;;;;10.50;4.80;;;;;;;;;;5042337;28;20025;-76
2021/12/03 09:22:50;;;;;;;5.60;3.35;;;;;;;;;;5045144;28;20123;-75
2021/12/03 09:25:39;;;;;;;7.22;2.70;;;;;;;;;;5048213;28;20048;-76
2021/12/03 09:28:27;;;;;;;4.90;2.75;;;;;;;;;;5045810;28;20079;-77
2021/12/03 09:31:13;;;;;;;6.20;2.90;;;;;;;;;;5051916;28;20048;-69
2021/12/03 09:33:59;;;;;;;5.60;3.60;;;;;;;;;;5034929;28;20074;-67
2021/12/03 09:36:44;;;;;;;11.05;3.17;;;;;;;;;;5033254;28;20032;-67
2021/12/03 09:39:29;;;;;;;6.95;3.33;;;;;;;;;;5033975;28;20372;-66
2021/12/03 09:42:16;;;;;;;9.95;2.78;;;;;;;;;;5046802;28;20087;-67
2021/12/03 09:45:04;;;;;;;4.80;2.60;;;;;;;;;;5040460;28;20033;-68
2021/12/03 09:47:51;;;;;;;8.07;3.30;;;;;;;;;;5044262;28;20071;-77
2021/12/03 09:50:38;;;;;;;7.40;2.83;;;;;;;;;;5040492;28;20119;-63
2021/12/03 09:54:10;;;;;;;8.20;2.83;;;;;;;;;;5020131;28;20549;-64
2021/12/03 09:56:31;;;;;;;3.97;2.33;;;;;;;;;;5042503;28;20040;-62
2021/12/03 09:59:40;;;;;;;11.02;3.40;;;;;;;;;;5055586;28;20051;-67
2021/12/03 10:02:35;;;;;;;6.60;2.78;;;;;;;;;;5044382;28;20045;-65
2021/12/03 10:12:13;;;;;;;7.47;2.92;;;;;;;;;;5046682;28;20084;-65
2021/12/03 10:15:08;;;;;;;4.25;3.10;;;;;;;;;;5044229;28;20071;-67
2021/12/03 10:18:15;;;;;;;7.57;3.28;;;;;;;;;;5031760;28;20036;-64
2021/12/03 10:21:10;;;;;;;6.97;3.30;;;;;;;;;;5025234;28;20155;-65
2021/12/03 10:24:50;;;;;;;5.70;3.00;;;;;;;;;;5033874;28;20045;-64
2021/12/03 10:30:37;;;;;;;7.28;3.10;;;;;;;;;;5045662;28;20047;-61
2021/12/03 10:42:37;;;;;;;5.47;3.55;;;;;;;;;;5052539;28;20202;-62
2021/12/03 10:48:18;;;;;;;6.18;2.90;;;;;;;;;;5048492;28;20024;-74
2021/12/03 11:15:52;;;;;;;9.60;4.80;;;;;;;;;;5058054;28;20420;-71
2021/12/03 11:43:42;;;;;;;5.32;3.17;;;;;;;;;;5040445;28;20040;-64
2021/12/03 12:26:33;;;;;;;5.10;2.67;;;;;;;;;;5054877;28;20033;-70
2021/12/03 13:07:05;;;;;;;4.10;2.42;;;;;;;;;;5040716;28;20017;-65
2021/12/03 13:12:32;;;;;;;9.73;5.65;;;;;;;;;;5044109;28;20048;-62
2021/12/03 13:27:46;;;;;;;4.38;2.80;;;;;;;;;;5032885;28;20075;-61
2021/12/03 14:04:37;;;;;;;5.38;2.25;;;;;;;;;;5045276;28;20459;-65
2021/12/03 14:07:31;;;;;;;5.22;2.35;;;;;;;;;;5038722;28;20032;-69
2021/12/03 14:20:50;;;;;;;5.57;2.78;;;;;;;;;;5061927;28;20387;-65
2021/12/03 14:37:55;;;;;;;4.55;1.98;;;;;;;;;;5028875;28;20392;-67
2021/12/03 14:46:28;;;;;;;7.63;2.45;;;;;;;;;;5048078;28;20472;-69
2021/12/03 14:52:24;;;;;;;6.90;2.40;;;;;;;;;;5047106;28;20033;-68
2021/12/03 14:55:10;;;;;;;6.38;2.65;;;;;;;;;;5039908;28;20033;-71
2021/12/03 14:58:02;;;;;;;3.97;2.42;;;;;;;;;;5032042;28;20040;-67
2021/12/03 15:00:55;;;;;;;2.85;2.20;;;;;;;;;;5024152;28;20028;-75
2021/12/03 15:03:52;;;;;;;6.15;2.78;;;;;;;;;;5047604;28;20450;-67
2021/12/03 15:06:51;;;;;;;6.90;2.63;;;;;;;;;;5039483;28;20037;-66
2021/12/03 15:09:42;;;;;;;9.82;2.75;;;;;;;;;;5047920;28;20040;-66
2021/12/03 15:12:54;;;;;;;6.57;3.20;;;;;;;;;;5047374;28;20569;-68
2021/12/03 15:33:27;;;;;;;6.50;3.00;;;;;;;;;;5050607;28;20025;-73
2021/12/03 15:36:28;;;;;;;6.10;3.50;;;;;;;;;;5050470;28;20029;-72
2021/12/03 16:03:38;;;;;;;6.13;3.08;;;;;;;;;;5032704;28;19917;-71
2021/12/03 16:09:19;;;;;;;7.00;3.92;;;;;;;;;;5050427;28;20627;-65
2021/12/03 16:21:49;;;;;;;9.18;3.22;;;;;;;;;;5017669;28;20124;-70
2021/12/03 16:25:00;;;;;;;6.75;3.33;;;;;;;;;;5047573;28;20389;-71
2021/12/03 16:43:37;;;;;;;7.22;4.15;;;;;;;;;;5055665;28;20646;-72
2021/12/03 16:43:39;;;;;;;9.25;3.80;;;;;;;;;;5050247;28;20041;-63
2021/12/03 16:46:41;;;;;;;6.93;3.53;;;;;;;;;;5044681;28;20389;-64
2021/12/03 16:52:34;;;;;;;8.80;3.47;;;;;;;;;;5048127;28;20437;-64
2021/12/03 16:55:20;;;;;;;7.13;3.40;;;;;;;;;;5050439;28;20072;-68
2021/12/03 16:58:05;;;;;;;7.15;4.47;;;;;;;;;;5034827;28;20072;-69
2021/12/03 17:00:59;;;;;;;9.38;3.75;;;;;;;;;;5031535;28;20170;-69
2021/12/03 17:12:51;;;;;;;7.80;3.95;;;;;;;;;;5053958;28;20071;-72
2021/12/03 17:16:05;;;;;;;7.82;4.05;;;;;;;;;;5049822;28;20112;-75
2021/12/03 17:49:15;;;;;;;7.85;4.00;;;;;;;;;;5048347;28;20071;-75
2021/12/03 17:58:14;;;;;;;6.57;3.72;;;;;;;;;;5048951;28;20496;-74
2021/12/03 18:01:11;;;;;;;8.30;3.50;;;;;;;;;;5029441;28;20029;-75
2021/12/03 18:16:15;;;;;;;10.45;3.83;;;;;;;;;;5047573;28;20032;-67
2021/12/03 18:55:43;;;;;;;6.28;3.35;;;;;;;;;;5031447;28;20252;-76
2021/12/03 18:58:30;;;;;;;7.25;3.15;;;;;;;;;;5033819;28;20029;-74
2021/12/03 19:01:16;;;;;;;6.72;2.92;;;;;;;;;;5046634;28;20396;-66
2021/12/03 19:07:22;;;;;;;8.07;3.10;;;;;;;;;;5045367;28;20029;-65
2021/12/03 19:10:14;;;;;;;9.55;4.20;;;;;;;;;;5051618;28;20029;-67
2021/12/03 19:13:04;;;;;;;7.85;3.25;;;;;;;;;;5045583;28;20080;-63
2021/12/03 19:15:50;;;;;;;6.03;3.67;;;;;;;;;;5031679;28;20030;-65
2021/12/03 19:18:36;;;;;;;6.38;3.58;;;;;;;;;;5051578;28;20116;-65
2021/12/03 19:21:24;;;;;;;7.07;3.40;;;;;;;;;;5048725;28;20041;-72
2021/12/03 19:24:10;;;;;;;6.88;3.80;;;;;;;;;;5042304;28;20044;-72
2021/12/03 19:26:55;;;;;;;6.63;3.92;;;;;;;;;;5055877;28;20021;-71
2021/12/03 19:29:43;;;;;;;7.10;3.38;;;;;;;;;;5051449;28;20060;-73
2021/12/03 19:32:31;;;;;;;6.63;2.95;;;;;;;;;;5035613;28;20036;-73
2021/12/03 19:35:16;;;;;;;8.18;4.03;;;;;;;;;;5051212;28;20021;-73
2021/12/03 19:38:03;;;;;;;7.95;3.70;;;;;;;;;;5050139;28;20033;-70
2021/12/03 19:40:56;;;;;;;6.18;3.55;;;;;;;;;;5051094;28;20056;-64
2021/12/03 19:43:47;;;;;;;9.20;4.25;;;;;;;;;;5046268;28;20070;-62
2021/12/03 19:46:38;;;;;;;8.23;3.55;;;;;;;;;;5051197;28;20068;-64
2021/12/03 19:52:29;;;;;;;7.10;3.33;;;;;;;;;;5041146;28;20102;-63
2021/12/03 19:55:14;;;;;;;9.15;3.85;;;;;;;;;;5037122;28;20036;-64
2021/12/03 19:57:59;;;;;;;9.30;4.38;;;;;;;;;;5035984;28;20025;-64
2021/12/03 20:00:46;;;;;;;7.03;3.90;;;;;;;;;;5037089;28;20021;-63
2021/12/03 20:03:31;;;;;;;10.93;3.95;;;;;;;;;;5037408;28;20124;-65
2021/12/03 20:06:17;;;;;;;4.60;3.33;;;;;;;;;;5050312;28;20407;-66
2021/12/03 20:09:03;;;;;;;10.02;4.05;;;;;;;;;;5059517;28;20025;-62
2021/12/03 20:11:55;;;;;;;8.32;3.70;;;;;;;;;;5042865;28;20128;-65
2021/12/03 20:14:43;;;;;;;7.55;3.58;;;;;;;;;;5029811;28;20523;-72
2021/12/03 20:17:32;;;;;;;7.30;3.97;;;;;;;;;;5049562;22;20126;-71
2021/12/03 20:20:18;;;;;;;11.07;5.53;;;;;;;;;;4978204;28;20121;-68
2021/12/03 20:28:44;;;;;;;7.28;3.95;;;;;;;;;;4994742;28;20388;-69
2021/12/03 20:31:33;;;;;;;7.32;4.28;;;;;;;;;;4962111;28;20034;-70
2021/12/03 20:34:30;;;;;;;6.57;4.20;;;;;;;;;;4976301;28;20061;-68
2021/12/03 20:37:36;;;;;;;6.53;3.53;;;;;;;;;;4994484;28;20451;-67
2021/12/03 20:40:25;;;;;;;9.32;3.92;;;;;;;;;;4980142;28;20034;-65
2021/12/03 21:09:57;;;;;;;5.47;3.35;;;;;;;;;;4993980;28;20026;-68
2021/12/03 21:12:45;;;;;;;;;;;;;;;;;;4993922;28;20507;-66
2021/12/03 21:15:43;;;;;;;7.72;3.80;;;;;;;;;;4974418;28;19913;-65
2021/12/03 21:18:42;;;;;;;5.57;3.17;;;;;;;;;;4980633;28;20054;-65
2021/12/03 21:24:29;;;;;;;8.18;4.00;;;;;;;;;;4989278;28;20389;-66
2021/12/03 21:27:32;;;;;;;6.40;3.30;;;;;;;;;;4983237;28;20391;-63
2021/12/03 21:42:23;;;;;;;7.57;3.55;;;;;;;;;;4992052;28;20030;-68
2021/12/03 21:45:08;;;;;;;7.85;4.03;;;;;;;;;;4993544;28;20114;-68
2021/12/03 21:47:54;;;;;;;8.65;3.03;;;;;;;;;;4992010;28;20082;-73
2021/12/03 21:50:39;;;;;;;4.28;3.13;;;;;;;;;;4980022;28;20078;-74
2021/12/03 21:53:25;;;;;;;6.13;3.55;;;;;;;;;;4992587;28;20026;-76
2021/12/03 21:56:10;;;;;;;4.78;3.10;;;;;;;;;;4975595;28;20385;-76
2021/12/03 21:58:56;;;;;;;9.25;4.15;;;;;;;;;;5010282;28;20464;-76
2021/12/03 22:01:41;;;;;;;8.10;4.18;;;;;;;;;;4992780;28;20029;-75
2021/12/03 22:04:28;;;;;;;5.18;3.30;;;;;;;;;;4973968;28;20078;-69
2021/12/03 22:07:14;;;;;;;7.00;3.20;;;;;;;;;;4993307;28;20022;-71
2021/12/03 22:10:00;;;;;;;6.38;3.25;;;;;;;;;;4992609;28;20045;-69
2021/12/03 22:12:45;;;;;;;6.30;3.40;;;;;;;;;;4992134;28;20022;-70
2021/12/03 22:15:30;;;;;;;7.65;3.35;;;;;;;;;;4980620;28;20038;-68
2021/12/03 22:18:16;;;;;;;4.55;2.83;;;;;;;;;;4985229;28;20134;-70
2021/12/03 22:21:05;;;;;;;5.40;3.15;;;;;;;;;;4992775;28;20042;-69
2021/12/03 22:23:50;;;;;;;4.75;2.40;;;;;;;;;;4991568;28;20074;-67
2021/12/03 22:26:35;;;;;;;7.15;3.88;;;;;;;;;;4987061;28;20053;-70
2021/12/03 22:29:21;;;;;;;9.98;3.38;;;;;;;;;;4980501;28;20075;-69
2021/12/03 22:32:06;;;;;;;7.22;2.83;;;;;;;;;;4992659;28;20098;-70
2021/12/03 22:34:52;;;;;;;6.22;3.10;;;;;;;;;;4991314;28;20433;-69
2021/12/03 22:37:37;;;;;;;7.07;2.88;;;;;;;;;;4992120;28;20490;-69
2021/12/03 22:40:22;;;;;;;7.28;2.83;;;;;;;;;;4991364;28;20029;-69
2021/12/03 22:43:11;;;;;;;7.28;2.90;;;;;;;;;;4992371;28;20576;-67
2021/12/03 22:46:15;;;;;;;5.22;2.50;;;;;;;;;;4991329;28;20040;-65
2021/12/03 22:54:42;;;;;;;3.85;2.45;;;;;;;;;;5045203;28;20022;-65
2021/12/03 22:57:27;;;;;;;6.95;2.97;;;;;;;;;;4991992;28;20075;-64
2021/12/03 23:00:28;;;;;;;5.63;3.03;;;;;;;;;;4991054;28;20117;-65
2021/12/03 23:03:14;;;;;;;4.93;2.70;;;;;;;;;;4972867;28;20039;-68
2021/12/03 23:06:00;;;;;;;7.55;3.10;;;;;;;;;;4981733;28;20534;-72
2021/12/03 23:08:45;;;;;;;5.90;2.75;;;;;;;;;;4992164;28;20036;-70
2021/12/03 23:11:30;;;;;;;5.20;2.40;;;;;;;;;;4989931;28;20065;-70
2021/12/03 23:14:15;;;;;;;6.70;2.88;;;;;;;;;;4992083;28;20403;-69
2021/12/03 23:17:01;;;;;;;6.43;2.75;;;;;;;;;;4990924;28;20030;-68
2021/12/03 23:19:46;;;;;;;6.32;2.47;;;;;;;;;;4991511;28;20050;-64
2021/12/03 23:22:31;;;;;;;8.77;3.00;;;;;;;;;;4990741;28;20041;-63
2021/12/03 23:25:17;;;;;;;5.05;2.92;;;;;;;;;;4967243;28;20075;-64
2021/12/03 23:28:03;;;;;;;5.85;2.92;;;;;;;;;;4985976;28;20030;-62
2021/12/03 23:30:48;;;;;;;5.78;2.65;;;;;;;;;;4979743;28;20026;-65
2021/12/03 23:33:34;;;;;;;4.53;2.47;;;;;;;;;;4986742;28;20483;-64
2021/12/03 23:36:19;;;;;;;6.60;3.17;;;;;;;;;;4990660;28;20034;-62
2021/12/03 23:39:05;;;;;;;6.40;2.63;;;;;;;;;;4978461;28;20430;-68
2021/12/03 23:41:51;;;;;;;6.25;2.67;;;;;;;;;;4990482;28;20022;-68
2021/12/03 23:44:36;;;;;;;4.50;2.63;;;;;;;;;;4991650;28;20439;-69
2021/12/03 23:47:21;;;;;;;4.25;2.42;;;;;;;;;;4990586;28;20029;-70
2021/12/03 23:50:07;;;;;;;6.07;2.47;;;;;;;;;;4989119;28;20528;-69
2021/12/03 23:52:52;;;;;;;6.65;3.47;;;;;;;;;;4993516;28;20038;-67
2021/12/03 23:55:38;;;;;;;7.63;3.55;;;;;;;;;;4994944;28;20503;-71
2021/12/03 23:58:29;;;;;;;8.40;4.55;;;;;;;;;;4980360;28;20033;-65
